createdAt,value
2023-01-25T00:01:36.033Z,2.73
2023-01-25T00:04:02.630Z,3.00
2023-01-25T00:06:29.314Z,3.10
2023-01-25T00:08:55.931Z,3.80
2023-01-25T00:11:22.547Z,3.20
2023-01-25T00:13:49.385Z,3.13
2023-01-25T00:16:16.120Z,3.47
2023-01-25T00:18:42.749Z,3.00
2023-01-25T00:21:18.395Z,3.67
2023-01-25T00:23:45.370Z,3.17
2023-01-25T00:26:12.328Z,3.33
2023-01-25T00:28:39.456Z,2.43
2023-01-25T00:31:07.780Z,2.47
2023-01-25T00:33:37.166Z,2.80
2023-01-25T00:36:26.377Z,3.57
2023-01-25T00:38:54.409Z,3.13
2023-01-25T00:41:21.451Z,3.07
2023-01-25T00:43:48.149Z,2.93
2023-01-25T00:46:16.828Z,3.57
2023-01-25T00:48:47.058Z,3.27
2023-01-25T00:51:14.038Z,3.47
2023-01-25T00:53:40.627Z,2.67
2023-01-25T00:56:07.576Z,3.10
2023-01-25T00:58:34.138Z,2.53
2023-01-25T01:01:00.793Z,2.93
2023-01-25T01:03:27.420Z,3.13
2023-01-25T01:06:05.751Z,2.67
2023-01-25T01:08:38.922Z,3.40
2023-01-25T01:11:09.569Z,2.70
2023-01-25T01:13:36.937Z,1.93
2023-01-25T01:16:06.179Z,3.23
2023-01-25T01:18:37.016Z,2.93
2023-01-25T01:21:03.762Z,2.20
2023-01-25T01:23:31.074Z,2.70
2023-01-25T01:26:05.613Z,2.43
2023-01-25T01:28:33.513Z,2.73
2023-01-25T01:31:04.492Z,2.37
2023-01-25T01:33:31.118Z,1.80
2023-01-25T01:35:58.078Z,2.40
2023-01-25T01:38:25.303Z,2.43
2023-01-25T01:40:51.988Z,2.23
2023-01-25T01:43:21.052Z,2.03
2023-01-25T01:45:47.812Z,2.80
2023-01-25T01:48:28.642Z,1.93
2023-01-25T01:51:08.587Z,1.67
2023-01-25T01:53:35.275Z,2.30
2023-01-25T01:56:07.878Z,2.00
2023-01-25T01:58:35.672Z,2.87
2023-01-25T02:01:02.665Z,2.00
2023-01-25T02:03:30.707Z,2.10
2023-01-25T02:06:02.976Z,2.00
2023-01-25T02:08:33.690Z,2.47
2023-01-25T02:11:02.305Z,1.73
2023-01-25T02:13:29.215Z,1.97
2023-01-25T02:15:56.696Z,2.77
2023-01-25T02:18:24.833Z,2.43
2023-01-25T02:20:58.021Z,2.60
2023-01-25T02:23:40.661Z,2.63
2023-01-25T02:26:07.911Z,2.40
2023-01-25T02:28:37.333Z,2.50
2023-01-25T02:31:04.597Z,2.40
2023-01-25T02:33:31.370Z,2.27
2023-01-25T02:36:21.517Z,2.13
2023-01-25T02:38:56.859Z,2.30
2023-01-25T02:41:37.070Z,2.13
2023-01-25T02:44:11.506Z,2.40
2023-01-25T02:46:40.335Z,1.83
2023-01-25T02:49:08.643Z,2.40
2023-01-25T02:51:38.645Z,1.77
2023-01-25T02:54:07.626Z,1.43
2023-01-25T02:56:34.375Z,1.70
2023-01-25T02:59:05.518Z,1.77
2023-01-25T03:01:36.941Z,2.23
2023-01-25T03:04:04.267Z,2.13
2023-01-25T03:06:31.385Z,1.73
2023-01-25T03:08:58.213Z,2.23
2023-01-25T03:11:24.969Z,2.20
2023-01-25T03:13:51.600Z,2.53
2023-01-25T03:16:18.566Z,2.33
2023-01-25T03:18:45.497Z,1.90
2023-01-25T03:21:15.126Z,3.13
2023-01-25T03:23:42.771Z,2.40
2023-01-25T03:26:15.298Z,2.30
2023-01-25T03:28:42.859Z,1.83
2023-01-25T03:31:12.337Z,2.77
2023-01-25T03:33:39.549Z,1.97
2023-01-25T03:36:07.741Z,2.33
2023-01-25T03:38:35.069Z,2.03
2023-01-25T03:41:02.233Z,2.20
2023-01-25T03:43:29.376Z,2.77
2023-01-25T03:46:00.985Z,1.63
2023-01-25T03:48:28.739Z,2.03
2023-01-25T03:50:58.149Z,2.00
2023-01-25T03:53:29.938Z,1.37
2023-01-25T03:55:59.918Z,1.50
2023-01-25T03:58:27.040Z,2.13
2023-01-25T04:00:58.839Z,1.40
2023-01-25T04:03:26.485Z,2.40
2023-01-25T04:05:54.250Z,2.27
2023-01-25T04:08:21.912Z,2.10
2023-01-25T04:10:57.600Z,2.10
2023-01-25T04:13:25.395Z,2.83
2023-01-25T04:15:52.486Z,2.73
2023-01-25T04:18:19.450Z,3.00
2023-01-25T04:20:46.768Z,2.47
2023-01-25T04:23:13.431Z,3.73
2023-01-25T04:25:40.167Z,3.43
2023-01-25T04:28:06.800Z,2.23
2023-01-25T04:30:33.531Z,2.33
2023-01-25T04:33:06.854Z,4.23
2023-01-25T04:35:33.522Z,2.27
2023-01-25T04:38:00.163Z,2.07
2023-01-25T04:40:27.315Z,2.30
2023-01-25T04:42:54.136Z,2.83
2023-01-25T04:45:20.793Z,2.47
2023-01-25T04:47:47.457Z,2.30
2023-01-25T04:50:14.303Z,2.93
2023-01-25T04:52:40.947Z,2.53
2023-01-25T04:55:08.335Z,3.07
2023-01-25T04:57:35.221Z,2.70
2023-01-25T05:00:02.463Z,2.60
2023-01-25T05:02:29.109Z,2.73
2023-01-25T05:04:55.752Z,2.03
2023-01-25T05:07:22.424Z,2.00
2023-01-25T05:09:49.054Z,2.57
2023-01-25T05:12:15.680Z,2.90
2023-01-25T05:14:42.311Z,2.13
2023-01-25T05:17:09.169Z,3.90
2023-01-25T05:19:35.999Z,3.23
2023-01-25T05:22:07.472Z,2.53
2023-01-25T05:24:35.474Z,2.00
2023-01-25T05:27:06.198Z,1.50
2023-01-25T05:29:37.924Z,2.07
2023-01-25T05:32:05.876Z,1.50
2023-01-25T05:34:32.917Z,2.67
2023-01-25T05:36:59.754Z,1.30
2023-01-25T05:39:26.498Z,1.83
2023-01-25T05:41:53.403Z,1.87
2023-01-25T05:44:20.358Z,1.37
2023-01-25T05:46:47.091Z,1.97
2023-01-25T05:49:13.947Z,1.90
2023-01-25T05:51:41.369Z,1.73
2023-01-25T05:54:12.221Z,2.13
2023-01-25T05:56:38.835Z,1.80
2023-01-25T05:59:05.692Z,2.13
2023-01-25T06:01:32.663Z,1.73
2023-01-25T06:03:59.399Z,2.03
2023-01-25T06:06:26.017Z,1.83
2023-01-25T06:08:53.681Z,2.17
2023-01-25T06:11:22.569Z,2.40
2023-01-25T06:14:01.258Z,1.90
2023-01-25T06:16:48.215Z,2.83
2023-01-25T06:19:15.000Z,2.47
2023-01-25T06:21:41.634Z,2.50
2023-01-25T06:24:08.412Z,2.60
2023-01-25T06:26:35.330Z,2.37
2023-01-25T06:29:27.875Z,2.10
2023-01-25T06:31:55.847Z,2.00
2023-01-25T06:34:24.489Z,2.17
2023-01-25T06:36:51.141Z,2.23
2023-01-25T06:39:17.715Z,2.77
2023-01-25T06:45:00.655Z,2.73
2023-01-25T06:47:57.252Z,2.90
2023-01-25T06:51:00.043Z,2.17
2023-01-25T06:53:52.550Z,1.93
2023-01-25T06:56:41.862Z,1.80
2023-01-25T06:59:24.888Z,1.90
2023-01-25T07:01:56.438Z,2.37
2023-01-25T07:07:16.718Z,2.37
2023-01-25T07:09:45.981Z,2.63
2023-01-25T07:12:40.178Z,2.73
2023-01-25T07:15:15.589Z,3.13
2023-01-25T07:17:45.990Z,2.77
2023-01-25T07:20:12.840Z,2.93
2023-01-25T07:22:41.889Z,2.83
2023-01-25T07:25:19.830Z,2.77
2023-01-25T07:27:46.555Z,2.33
2023-01-25T07:30:14.536Z,2.70
2023-01-25T07:32:41.133Z,3.10
2023-01-25T07:35:19.079Z,2.60
2023-01-25T07:37:45.687Z,4.50
2023-01-25T07:40:13.524Z,3.43
2023-01-25T07:42:40.147Z,3.37
2023-01-25T07:45:07.944Z,3.27
2023-01-25T07:47:37.078Z,3.20
2023-01-25T07:50:04.750Z,3.43
2023-01-25T07:52:31.315Z,3.20
2023-01-25T07:54:57.992Z,3.53
2023-01-25T07:57:25.527Z,5.00
2023-01-25T07:59:52.114Z,3.77
2023-01-25T08:02:18.748Z,4.70
2023-01-25T08:04:45.650Z,4.73
2023-01-25T08:07:13.697Z,5.17
2023-01-25T08:09:41.774Z,3.20
2023-01-25T08:12:08.792Z,4.57
2023-01-25T08:14:35.475Z,3.53
2023-01-25T08:17:02.101Z,3.10
2023-01-25T08:19:28.778Z,4.17
2023-01-25T08:21:55.680Z,4.43
2023-01-25T08:24:25.632Z,6.20
2023-01-25T08:26:52.349Z,3.73
2023-01-25T08:29:19.069Z,5.20
2023-01-25T08:31:45.767Z,5.53
2023-01-25T08:34:12.410Z,4.10
2023-01-25T08:36:41.921Z,3.47
2023-01-25T08:39:11.775Z,3.13
2023-01-25T08:41:38.621Z,3.90
2023-01-25T08:44:06.481Z,5.40
2023-01-25T08:46:34.201Z,3.87
2023-01-25T08:49:02.913Z,4.23
2023-01-25T08:51:31.298Z,4.13
2023-01-25T08:54:02.426Z,4.60
2023-01-25T08:56:29.004Z,4.90
2023-01-25T08:58:56.371Z,3.90
2023-01-25T09:01:23.245Z,4.17
2023-01-25T09:03:51.252Z,5.20
2023-01-25T09:06:19.849Z,3.47
2023-01-25T09:08:47.204Z,4.90
2023-01-25T09:11:17.749Z,4.37
2023-01-25T09:13:44.772Z,5.50
2023-01-25T09:16:14.137Z,5.00
2023-01-25T09:18:43.399Z,6.10
2023-01-25T09:21:12.754Z,6.70
2023-01-25T09:23:50.776Z,5.50
2023-01-25T09:26:18.578Z,6.33
2023-01-25T09:28:50.740Z,6.23
2023-01-25T09:31:23.414Z,4.90
2023-01-25T09:33:52.732Z,5.83
2023-01-25T09:36:19.887Z,6.13
2023-01-25T09:38:46.580Z,4.77
2023-01-25T09:41:19.940Z,5.67
2023-01-25T09:44:14.790Z,5.40
2023-01-25T09:46:45.706Z,5.53
2023-01-25T09:49:33.815Z,6.57
2023-01-25T09:52:28.454Z,4.70
2023-01-25T09:54:55.209Z,5.20
2023-01-25T09:57:28.801Z,7.33
2023-01-25T09:59:56.640Z,6.03
2023-01-25T10:02:41.958Z,7.23
2023-01-25T10:05:17.922Z,5.07
2023-01-25T10:07:57.425Z,6.27
2023-01-25T10:10:38.123Z,6.93
2023-01-25T10:13:06.772Z,7.90
2023-01-25T10:15:41.209Z,8.93
2023-01-25T10:18:25.574Z,7.03
2023-01-25T10:20:58.319Z,7.17
2023-01-25T10:23:36.912Z,6.23
2023-01-25T10:26:29.935Z,7.13
2023-01-25T10:29:12.856Z,5.03
2023-01-25T10:31:59.639Z,5.17
2023-01-25T10:34:28.213Z,7.13
2023-01-25T10:36:56.583Z,6.97
2023-01-25T10:39:24.192Z,7.10
2023-01-25T10:41:56.786Z,6.47
2023-01-25T10:44:26.031Z,4.60
2023-01-25T10:47:07.519Z,4.07
2023-01-25T10:49:51.600Z,5.47
2023-01-25T10:52:22.252Z,5.77
2023-01-25T10:55:02.437Z,4.27
2023-01-25T10:57:30.021Z,3.67
2023-01-25T11:00:05.525Z,5.13
2023-01-25T11:02:47.249Z,5.90
2023-01-25T11:05:19.811Z,4.80
2023-01-25T11:07:47.084Z,4.43
2023-01-25T11:10:28.112Z,4.13
2023-01-25T11:13:16.610Z,3.90
2023-01-25T11:15:52.456Z,3.97
2023-01-25T11:18:35.092Z,4.73
2023-01-25T11:21:18.496Z,6.27
2023-01-25T11:24:05.071Z,5.50
2023-01-25T11:26:33.694Z,6.53
2023-01-25T11:29:06.248Z,3.83
2023-01-25T11:31:33.255Z,4.27
2023-01-25T11:34:00.067Z,3.37
2023-01-25T11:36:55.415Z,4.00
2023-01-25T11:39:30.065Z,4.03
2023-01-25T11:42:35.886Z,3.17
2023-01-25T11:45:11.327Z,3.77
2023-01-25T11:48:08.541Z,4.30
2023-01-25T11:51:06.920Z,3.80
2023-01-25T11:54:09.543Z,4.10
2023-01-25T11:56:50.721Z,3.90
2023-01-25T11:59:40.431Z,3.90
2023-01-25T12:02:08.619Z,3.97
2023-01-25T12:05:16.317Z,3.90
2023-01-25T12:08:12.064Z,3.73
2023-01-25T12:10:57.181Z,2.93
2023-01-25T12:13:41.284Z,4.50
2023-01-25T12:16:10.551Z,3.60
2023-01-25T12:18:55.413Z,3.40
2023-01-25T12:21:35.569Z,4.07
2023-01-25T12:24:14.110Z,4.53
2023-01-25T12:26:55.675Z,2.83
2023-01-25T12:29:32.878Z,3.33
2023-01-25T12:32:12.848Z,3.77
2023-01-25T12:34:43.013Z,3.20
2023-01-25T12:37:22.346Z,3.47
2023-01-25T12:39:57.209Z,3.07
2023-01-25T12:42:36.780Z,3.10
2023-01-25T12:45:16.251Z,3.53
2023-01-25T12:48:21.974Z,4.40
2023-01-25T12:50:56.242Z,3.93
2023-01-25T12:53:41.848Z,3.47
2023-01-25T12:56:14.570Z,3.33
2023-01-25T12:58:47.803Z,3.70
2023-01-25T13:01:45.294Z,3.87
2023-01-25T13:04:53.382Z,5.57
2023-01-25T13:07:31.381Z,3.13
2023-01-25T13:10:21.386Z,2.77
2023-01-25T13:13:29.018Z,2.50
2023-01-25T13:15:56.079Z,4.57
2023-01-25T13:18:29.177Z,4.97
2023-01-25T13:21:00.722Z,4.87
2023-01-25T13:23:50.252Z,4.97
2023-01-25T13:26:22.471Z,3.77
2023-01-25T13:28:51.636Z,5.30
2023-01-25T13:31:51.388Z,5.20
2023-01-25T13:34:39.812Z,3.73
2023-01-25T13:37:24.428Z,3.80
2023-01-25T13:39:55.844Z,4.03
2023-01-25T13:42:33.801Z,4.63
2023-01-25T13:45:15.011Z,3.80
2023-01-25T13:47:43.900Z,5.50
2023-01-25T13:50:24.514Z,5.20
2023-01-25T13:52:58.407Z,4.20
2023-01-25T13:55:25.506Z,3.63
2023-01-25T13:57:52.198Z,3.87
2023-01-25T14:00:19.529Z,3.20
2023-01-25T14:03:00.847Z,3.37
2023-01-25T14:05:38.917Z,2.90
2023-01-25T14:08:05.681Z,3.70
2023-01-25T14:13:27.578Z,7.13
2023-01-25T14:16:09.310Z,10.53
2023-01-25T14:18:38.787Z,22.20
2023-01-25T14:21:20.381Z,14.83
2023-01-25T14:23:48.707Z,3.13
2023-01-25T14:26:20.004Z,3.57
2023-01-25T14:28:59.332Z,4.97
2023-01-25T14:31:36.310Z,6.30
2023-01-25T14:34:04.977Z,3.67
2023-01-25T14:36:37.320Z,4.37
2023-01-25T14:39:16.741Z,3.47
2023-01-25T14:41:59.261Z,4.07
2023-01-25T14:44:29.152Z,4.83
2023-01-25T14:47:22.026Z,5.40
2023-01-25T14:49:48.850Z,4.97
2023-01-25T14:52:19.480Z,5.40
2023-01-25T14:54:48.667Z,4.30
2023-01-25T14:57:27.660Z,3.30
2023-01-25T14:59:55.959Z,3.27
2023-01-25T15:02:47.904Z,3.63
2023-01-25T15:05:43.429Z,3.87
2023-01-25T15:08:10.530Z,4.37
2023-01-25T15:10:58.347Z,3.53
2023-01-25T15:13:26.929Z,5.23
2023-01-25T15:16:00.631Z,6.27
2023-01-25T15:18:53.067Z,4.13
2023-01-25T15:21:26.942Z,3.83
2023-01-25T15:23:55.982Z,3.80
2023-01-25T15:26:28.393Z,4.57
2023-01-25T15:28:57.690Z,6.47
2023-01-25T15:31:33.398Z,9.80
2023-01-25T15:34:02.524Z,13.07
2023-01-25T15:36:31.044Z,4.70
2023-01-25T15:38:57.799Z,4.07
2023-01-25T15:41:24.518Z,4.17
2023-01-25T15:43:51.249Z,4.90
2023-01-25T15:46:27.021Z,4.30
2023-01-25T15:48:53.966Z,3.83
2023-01-25T15:51:21.668Z,4.20
2023-01-25T15:53:48.405Z,6.27
2023-01-25T15:56:24.848Z,5.40
2023-01-25T15:58:53.770Z,8.83
2023-01-25T16:01:22.211Z,8.90
2023-01-25T16:03:48.958Z,5.80
2023-01-25T16:06:46.179Z,5.70
2023-01-25T16:09:24.781Z,2.73
2023-01-25T16:11:54.557Z,5.17
2023-01-25T16:14:23.720Z,3.70
2023-01-25T16:16:52.302Z,5.53
2023-01-25T16:19:25.369Z,5.20
2023-01-25T16:21:52.340Z,4.97
2023-01-25T16:24:22.058Z,4.00
2023-01-25T16:26:53.236Z,4.73
2023-01-25T16:29:20.060Z,4.27
2023-01-25T16:31:47.162Z,4.60
2023-01-25T16:34:13.890Z,2.90
2023-01-25T16:36:40.639Z,4.43
2023-01-25T16:39:25.469Z,3.83
2023-01-25T16:41:52.312Z,5.07
2023-01-25T16:44:19.341Z,3.80
2023-01-25T16:46:48.377Z,4.40
2023-01-25T16:49:26.353Z,3.03
2023-01-25T16:52:13.967Z,4.47
2023-01-25T16:54:40.677Z,4.07
2023-01-25T16:57:19.995Z,4.63
2023-01-25T16:59:47.325Z,3.90
2023-01-25T17:02:14.031Z,4.63
2023-01-25T17:04:43.624Z,5.23
2023-01-25T17:07:12.537Z,5.57
2023-01-25T17:09:39.152Z,4.70
2023-01-25T17:12:07.808Z,7.10
2023-01-25T17:14:35.917Z,7.70
2023-01-25T17:17:05.351Z,5.93
2023-01-25T17:19:32.205Z,5.37
2023-01-25T17:21:59.234Z,6.20
2023-01-25T17:24:26.145Z,6.10
2023-01-25T17:26:57.791Z,3.47
2023-01-25T17:29:24.859Z,5.63
2023-01-25T17:31:51.743Z,4.77
2023-01-25T17:34:19.447Z,4.67
2023-01-25T17:36:46.497Z,5.00
2023-01-25T17:39:15.560Z,5.63
2023-01-25T17:41:47.657Z,4.77
2023-01-25T17:44:20.360Z,5.23
2023-01-25T17:46:47.274Z,4.43
2023-01-25T17:49:20.210Z,4.07
2023-01-25T17:51:46.833Z,4.23
2023-01-25T17:54:13.729Z,4.07
2023-01-25T17:56:40.484Z,4.23
2023-01-25T17:59:09.132Z,4.30
2023-01-25T18:01:36.096Z,4.10
2023-01-25T18:04:06.315Z,4.53
2023-01-25T18:06:33.548Z,5.63
2023-01-25T18:09:02.600Z,3.40
2023-01-25T18:11:32.407Z,4.00
2023-01-25T18:14:02.104Z,4.77
2023-01-25T18:16:30.570Z,4.63
2023-01-25T18:18:59.323Z,4.40
2023-01-25T18:21:32.083Z,4.30
2023-01-25T18:24:15.434Z,4.80
2023-01-25T18:26:42.808Z,4.53
2023-01-25T18:29:09.661Z,5.03
2023-01-25T18:31:37.122Z,8.63
2023-01-25T18:34:04.861Z,8.40
2023-01-25T18:36:31.682Z,7.37
2023-01-25T18:39:00.046Z,5.93
2023-01-25T18:41:26.768Z,6.17
2023-01-25T18:43:53.464Z,5.83
2023-01-25T18:46:20.185Z,5.70
2023-01-25T18:48:47.334Z,4.47
2023-01-25T18:51:17.723Z,4.70
2023-01-25T18:53:47.642Z,5.00
2023-01-25T18:56:17.096Z,3.10
2023-01-25T18:58:45.224Z,3.77
2023-01-25T19:01:17.405Z,4.20
2023-01-25T19:03:45.476Z,4.07
2023-01-25T19:06:13.278Z,4.37
2023-01-25T19:08:44.615Z,4.13
2023-01-25T19:11:14.083Z,3.63
2023-01-25T19:13:42.110Z,4.47
2023-01-25T19:16:11.382Z,3.87
2023-01-25T19:18:46.913Z,4.73
2023-01-25T19:21:19.017Z,3.97
2023-01-25T19:23:46.042Z,4.30
2023-01-25T19:26:16.250Z,3.63
2023-01-25T19:28:47.088Z,5.53
2023-01-25T19:31:16.339Z,4.27
2023-01-25T19:33:44.666Z,4.23
2023-01-25T19:36:24.757Z,4.43
2023-01-25T19:38:51.777Z,4.33
2023-01-25T19:41:29.695Z,4.07
2023-01-25T19:44:01.146Z,4.97
2023-01-25T19:46:32.792Z,3.80
2023-01-25T19:49:27.358Z,4.37
2023-01-25T19:51:55.899Z,4.87
2023-01-25T19:54:24.372Z,4.70
2023-01-25T19:56:53.014Z,4.73
2023-01-25T19:59:25.239Z,5.27
2023-01-25T20:01:58.448Z,4.87
2023-01-25T20:04:25.482Z,5.30
2023-01-25T20:06:57.999Z,6.00
2023-01-25T20:09:41.881Z,5.40
2023-01-25T20:12:09.100Z,5.87
2023-01-25T20:14:38.124Z,5.50
2023-01-25T20:17:08.007Z,5.33
2023-01-25T20:19:37.112Z,4.57
2023-01-25T20:22:04.393Z,3.87
2023-01-25T20:24:31.085Z,4.23
2023-01-25T20:27:00.919Z,5.27
2023-01-25T20:29:28.943Z,4.90
2023-01-25T20:31:55.626Z,5.77
2023-01-25T20:34:25.829Z,7.07
2023-01-25T20:36:52.567Z,7.20
2023-01-25T20:39:24.927Z,8.83
2023-01-25T20:42:07.408Z,5.57
2023-01-25T20:44:34.089Z,6.23
2023-01-25T20:47:12.283Z,6.27
2023-01-25T20:49:50.883Z,6.73
2023-01-25T20:52:17.552Z,6.63
2023-01-25T20:54:44.159Z,5.73
2023-01-25T20:57:10.886Z,6.20
2023-01-25T20:59:37.695Z,5.87
2023-01-25T21:02:04.481Z,8.03
2023-01-25T21:04:33.382Z,7.43
2023-01-25T21:07:01.305Z,5.87
2023-01-25T21:09:28.338Z,6.17
2023-01-25T21:11:55.023Z,4.20
2023-01-25T21:14:21.784Z,4.23
2023-01-25T21:16:48.490Z,5.43
2023-01-25T21:19:15.086Z,7.90
2023-01-25T21:21:41.717Z,6.97
2023-01-25T21:24:09.224Z,4.60
2023-01-25T21:26:37.155Z,4.37
2023-01-25T21:29:05.554Z,4.00
2023-01-25T21:31:35.962Z,4.10
2023-01-25T21:34:03.904Z,3.60
2023-01-25T21:36:30.725Z,3.50
2023-01-25T21:38:58.140Z,3.87
2023-01-25T21:41:30.495Z,3.27
2023-01-25T21:44:17.647Z,4.23
2023-01-25T21:46:51.347Z,3.33
2023-01-25T21:49:41.212Z,3.57
2023-01-25T21:52:07.874Z,4.40
2023-01-25T21:54:37.160Z,4.17
2023-01-25T21:57:08.771Z,3.37
2023-01-25T21:59:36.697Z,3.90
2023-01-25T22:02:05.036Z,3.17
2023-01-25T22:04:36.180Z,2.60
2023-01-25T22:07:04.209Z,2.97
2023-01-25T22:09:30.901Z,3.27
2023-01-25T22:11:57.562Z,3.60
2023-01-25T22:14:27.121Z,2.83
2023-01-25T22:16:56.024Z,3.00
2023-01-25T22:19:22.848Z,3.47
2023-01-25T22:21:49.537Z,2.83
2023-01-25T22:24:16.499Z,3.23
2023-01-25T22:26:45.946Z,4.80
2023-01-25T22:29:13.279Z,3.13
2023-01-25T22:31:40.060Z,2.40
2023-01-25T22:34:07.281Z,3.20
2023-01-25T22:36:33.961Z,2.03
2023-01-25T22:39:00.581Z,2.63
2023-01-25T22:41:29.604Z,2.50
2023-01-25T22:43:56.595Z,2.30
2023-01-25T22:46:28.682Z,3.43
2023-01-25T22:48:55.821Z,2.47
2023-01-25T22:51:25.856Z,2.60
2023-01-25T22:53:55.360Z,2.07
2023-01-25T22:56:28.962Z,1.70
2023-01-25T22:58:56.021Z,1.73
2023-01-25T23:01:31.189Z,2.43
2023-01-25T23:03:58.713Z,1.60
2023-01-25T23:06:34.643Z,1.93
2023-01-25T23:09:04.747Z,1.63
2023-01-25T23:11:37.457Z,1.70
2023-01-25T23:14:29.340Z,1.27
2023-01-25T23:17:18.407Z,1.77
2023-01-25T23:19:45.105Z,2.07
2023-01-25T23:22:11.829Z,2.70
2023-01-25T23:24:38.457Z,2.37
2023-01-25T23:27:05.093Z,2.47
2023-01-25T23:29:32.147Z,1.90
2023-01-25T23:31:58.884Z,1.90
2023-01-25T23:34:25.612Z,2.77
2023-01-25T23:36:52.233Z,1.90
2023-01-25T23:39:19.917Z,2.67
2023-01-25T23:41:46.597Z,1.53
2023-01-25T23:44:13.253Z,2.63
2023-01-25T23:46:39.966Z,1.87
2023-01-25T23:49:06.606Z,2.27
2023-01-25T23:51:33.205Z,1.87
2023-01-25T23:53:59.851Z,1.80
2023-01-25T23:56:26.499Z,1.70
2023-01-25T23:58:53.142Z,1.70
